Aérodrome :
LOGIN :

S'inscrire | Disclaimer

   EN    FR    IT 

 










Légende :    VFR   VFR Marginal   IFR   IFR Intensif   IFR Très Intensif
Visi : 
Plafond : 
>= 8 km
>= 3000ft
5 à 8 km
1000 à 3000 ft
1500m à 5 km
500 à 1000 ft
800 à 1500m
200 à 500 ft
< 800m
< 200 ft
Symboles :   Orages  Brouillard  Fortes neiges  Fortes précipitations  Vent > 20 kt
SIGMETs :   Divers  Orages  Givrage  Turbulence  Onde Orograph.  Cendres Volcan.






- Altitude de l'aérodrome : 123 ft
- Code IATA : BLQ


LIPE - Bologna Guglielmo Marconi

DERNIER METAR :
  • 260220Z AUTO 10009KT 9999 NCD 17/13 Q1025

METARs EXPIRÉS :
  • 260150Z AUTO 10008KT 9999 NCD 17/12 Q1025
  • 260120Z AUTO 11009KT 080V140 9999 NCD 16/12 Q1024
  • 260050Z AUTO 05008KT 340V080 9999 NCD 16/10 Q1025
  • 260020Z AUTO 21003KT 190V260 9999 NCD 16/09 Q1024
  • 252350Z AUTO 21004KT 9999 NCD 16/09 Q1023

TAF TAF LIPE
Valide du 26 à 00h jusqu'au 27 à 00h UTC


252300Z 2600/2624 VRB05KT CAVOK
BECMG 2608/2610 10012KT
BECMG 2618/2620 VRB05KT



MET'MAP, la Météo Aéronautique d'un coup d'oeil ! - Copyright ORBIFLY Décembre 2007 - Disclaimer

ORBIFLY MET'MAP TEAM :

Programmation & Développement : Alexandra Zaïnal
Sur une idée originale de : Baudouin d'Aumeries
Assistance à la programmation : Marc-Olivier Méhu
Soutien technique & logistique : Manuel Goepfert

Contact : metmap@orbifly.com




SOURCES & CREDITS :

   NOAA